createdAt,value
2022-09-06T00:00:01.430Z,19.39
2022-09-06T00:01:01.436Z,19.41
2022-09-06T00:02:01.434Z,19.29
2022-09-06T00:03:01.762Z,19.29
2022-09-06T00:04:01.619Z,19.39
2022-09-06T00:05:01.440Z,19.3
2022-09-06T00:06:04.210Z,19.32
2022-09-06T00:07:01.446Z,19.26
2022-09-06T00:08:01.451Z,19.42
2022-09-06T00:09:01.448Z,19.37
2022-09-06T00:10:01.451Z,19.37
2022-09-06T00:11:05.665Z,19.42
2022-09-06T00:12:01.452Z,19.39
2022-09-06T00:13:01.447Z,19.39
2022-09-06T00:14:01.455Z,19.42
2022-09-06T00:15:01.463Z,19.24
2022-09-06T00:16:01.858Z,19.2
2022-09-06T00:17:04.342Z,19.11
2022-09-06T00:18:01.456Z,19.04
2022-09-06T00:19:01.628Z,18.88
2022-09-06T00:20:01.472Z,18.88
2022-09-06T00:21:01.462Z,18.92
2022-09-06T00:22:01.467Z,18.89
2022-09-06T00:23:01.495Z,19
2022-09-06T00:24:01.469Z,19.05
2022-09-06T00:25:01.473Z,18.88
2022-09-06T00:26:01.475Z,19.07
2022-09-06T00:27:01.476Z,19.04
2022-09-06T00:28:04.591Z,19.05
2022-09-06T00:29:01.484Z,19.01
2022-09-06T00:30:01.489Z,19.01
2022-09-06T00:31:01.779Z,18.92
2022-09-06T00:32:01.490Z,18.88
2022-09-06T00:33:01.490Z,18.92
2022-09-06T00:34:01.496Z,18.98
2022-09-06T00:35:01.494Z,18.96
2022-09-06T00:36:01.494Z,18.92
2022-09-06T00:37:01.501Z,18.94
2022-09-06T00:38:01.503Z,18.89
2022-09-06T00:39:04.242Z,18.97
2022-09-06T00:40:01.862Z,18.94
2022-09-06T00:41:01.510Z,18.96
2022-09-06T00:42:01.516Z,19
2022-09-06T00:43:01.510Z,18.88
2022-09-06T00:44:01.597Z,19.05
2022-09-06T00:45:01.514Z,19
2022-09-06T00:46:01.794Z,19
2022-09-06T00:47:01.516Z,19
2022-09-06T00:48:01.536Z,18.98
2022-09-06T00:49:01.963Z,18.97
2022-09-06T00:50:04.285Z,18.96
2022-09-06T00:51:01.520Z,18.82
2022-09-06T00:52:01.534Z,18.76
2022-09-06T00:53:01.520Z,18.63
2022-09-06T00:54:01.528Z,18.74
2022-09-06T00:55:01.689Z,18.79
2022-09-06T00:56:01.655Z,18.79
2022-09-06T00:57:01.531Z,18.74
2022-09-06T00:58:01.537Z,18.83
2022-09-06T00:59:01.561Z,18.83
2022-09-06T01:00:01.555Z,18.83
2022-09-06T01:01:04.733Z,18.81
2022-09-06T01:02:02.003Z,18.79
2022-09-06T01:03:01.549Z,18.79
2022-09-06T01:04:01.546Z,18.83
2022-09-06T01:05:01.555Z,18.79
2022-09-06T01:06:02.888Z,18.78
2022-09-06T01:07:01.559Z,18.76
2022-09-06T01:08:01.553Z,18.79
2022-09-06T01:09:01.558Z,18.82
2022-09-06T01:10:01.564Z,18.71
2022-09-06T01:11:01.574Z,18.67
2022-09-06T01:12:04.396Z,18.67
2022-09-06T01:13:01.559Z,18.71
2022-09-06T01:14:01.560Z,18.78
2022-09-06T01:15:01.565Z,18.7
2022-09-06T01:16:01.943Z,18.6
2022-09-06T01:17:04.627Z,18.66
2022-09-06T01:18:01.575Z,18.57
2022-09-06T01:19:01.575Z,18.61
2022-09-06T01:20:01.573Z,18.58
2022-09-06T01:21:01.589Z,18.61
2022-09-06T01:22:01.584Z,18.52
2022-09-06T01:23:04.636Z,18.6
2022-09-06T01:24:01.582Z,18.58
2022-09-06T01:25:01.606Z,18.53
2022-09-06T01:26:01.601Z,18.46
2022-09-06T01:27:01.584Z,18.46
2022-09-06T01:28:04.594Z,18.36
2022-09-06T01:29:01.582Z,18.36
2022-09-06T01:30:01.796Z,18.43
2022-09-06T01:31:01.814Z,18.39
2022-09-06T01:32:01.591Z,18.41
2022-09-06T01:33:01.621Z,18.39
2022-09-06T01:34:01.603Z,18.49
2022-09-06T01:35:01.605Z,18.42
2022-09-06T01:36:01.628Z,18.43
2022-09-06T01:37:14.431Z,18.41
2022-09-06T01:38:01.607Z,18.39
2022-09-06T01:39:04.632Z,18.45
2022-09-06T01:40:01.871Z,18.34
2022-09-06T01:41:01.638Z,18.34
2022-09-06T01:42:01.606Z,18.24
2022-09-06T01:43:01.611Z,18.26
2022-09-06T01:44:01.610Z,18.23
2022-09-06T01:45:01.628Z,18.16
2022-09-06T01:46:01.949Z,18.27
2022-09-06T01:47:01.616Z,18.33
2022-09-06T01:48:01.626Z,18.26
2022-09-06T01:49:01.622Z,18.28
2022-09-06T01:50:02.366Z,18.39
2022-09-06T01:51:01.657Z,18.34
2022-09-06T01:52:01.640Z,18.49
2022-09-06T01:53:01.664Z,18.42
2022-09-06T01:54:01.664Z,18.52
2022-09-06T01:55:01.636Z,18.52
2022-09-06T01:56:01.656Z,18.46
2022-09-06T01:57:01.642Z,18.46
2022-09-06T01:58:01.649Z,18.49
2022-09-06T01:59:01.903Z,18.42
2022-09-06T02:00:01.672Z,18.49
2022-09-06T02:01:01.737Z,18.48
2022-09-06T02:02:01.757Z,18.51
2022-09-06T02:03:01.759Z,18.46
2022-09-06T02:04:01.646Z,18.43
2022-09-06T02:05:01.670Z,18.45
2022-09-06T02:06:01.678Z,18.34
2022-09-06T02:07:01.654Z,18.48
2022-09-06T02:08:01.676Z,18.46
2022-09-06T02:09:01.709Z,18.51
2022-09-06T02:10:01.664Z,18.48
2022-09-06T02:11:01.678Z,18.39
2022-09-06T02:12:01.666Z,18.43
2022-09-06T02:13:01.666Z,18.45
2022-09-06T02:14:01.704Z,18.41
2022-09-06T02:15:01.688Z,18.41
2022-09-06T02:16:01.716Z,18.37
2022-09-06T02:17:02.013Z,18.37
2022-09-06T02:18:01.689Z,18.39
2022-09-06T02:19:01.703Z,18.33
2022-09-06T02:20:01.705Z,18.31
2022-09-06T02:21:01.733Z,18.28
2022-09-06T02:22:04.547Z,18.28
2022-09-06T02:23:01.685Z,18.3
2022-09-06T02:24:01.679Z,18.33
2022-09-06T02:25:01.691Z,18.27
2022-09-06T02:26:01.700Z,18.23
2022-09-06T02:27:01.693Z,18.19
2022-09-06T02:28:01.687Z,18.23
2022-09-06T02:29:01.696Z,18.06
2022-09-06T02:30:01.710Z,18.12
2022-09-06T02:31:01.979Z,18.12
2022-09-06T02:32:01.705Z,17.97
2022-09-06T02:33:04.507Z,17.98
2022-09-06T02:34:01.703Z,18.06
2022-09-06T02:35:01.707Z,18.06
2022-09-06T02:36:01.735Z,18.12
2022-09-06T02:37:01.704Z,18.05
2022-09-06T02:38:01.711Z,18.09
2022-09-06T02:39:01.717Z,18.11
2022-09-06T02:40:01.915Z,18.02
2022-09-06T02:41:01.732Z,17.84
2022-09-06T02:42:01.830Z,17.88
2022-09-06T02:43:01.726Z,17.8
2022-09-06T02:44:04.727Z,17.9
2022-09-06T02:45:01.731Z,17.9
2022-09-06T02:46:01.990Z,17.9
2022-09-06T02:47:02.031Z,18.03
2022-09-06T02:48:01.719Z,17.98
2022-09-06T02:49:01.739Z,17.94
2022-09-06T02:50:01.765Z,18
2022-09-06T02:51:01.744Z,18.05
2022-09-06T02:52:01.731Z,18.06
2022-09-06T02:53:01.742Z,18.08
2022-09-06T02:54:01.738Z,18
2022-09-06T02:55:04.743Z,17.84
2022-09-06T02:56:01.768Z,17.8
2022-09-06T02:57:01.745Z,17.82
2022-09-06T02:58:01.739Z,17.71
2022-09-06T02:59:01.759Z,17.72
2022-09-06T03:00:01.755Z,17.75
2022-09-06T03:01:02.133Z,17.76
2022-09-06T03:02:01.914Z,17.57
2022-09-06T03:03:01.750Z,17.6
2022-09-06T03:04:01.760Z,17.66
2022-09-06T03:05:01.761Z,17.66
2022-09-06T03:06:04.670Z,17.65
2022-09-06T03:07:01.763Z,17.69
2022-09-06T03:08:01.791Z,17.75
2022-09-06T03:09:01.763Z,17.73
2022-09-06T03:10:01.770Z,17.65
2022-09-06T03:11:01.768Z,17.57
2022-09-06T03:12:01.772Z,17.68
2022-09-06T03:13:01.770Z,17.72
2022-09-06T03:14:01.863Z,17.69
2022-09-06T03:15:01.777Z,17.59
2022-09-06T03:16:01.854Z,17.69
2022-09-06T03:17:05.073Z,17.68
2022-09-06T03:18:01.798Z,17.63
2022-09-06T03:19:01.779Z,17.63
2022-09-06T03:20:01.784Z,17.59
2022-09-06T03:21:01.796Z,17.68
2022-09-06T03:22:01.790Z,17.72
2022-09-06T03:23:01.781Z,17.76
2022-09-06T03:24:01.788Z,17.69
2022-09-06T03:25:01.800Z,17.68
2022-09-06T03:26:01.819Z,17.71
2022-09-06T03:27:01.806Z,17.69
2022-09-06T03:28:04.822Z,17.72
2022-09-06T03:29:01.797Z,17.73
2022-09-06T03:30:01.792Z,17.68
2022-09-06T03:31:02.033Z,17.66
2022-09-06T03:32:01.817Z,17.69
2022-09-06T03:33:07.498Z,17.59
2022-09-06T03:34:01.807Z,17.68
2022-09-06T03:35:01.815Z,17.69
2022-09-06T03:36:01.808Z,17.68
2022-09-06T03:37:01.831Z,17.66
2022-09-06T03:38:01.859Z,17.65
2022-09-06T03:39:04.862Z,17.72
2022-09-06T03:40:02.016Z,17.87
2022-09-06T03:41:01.819Z,17.84
2022-09-06T03:42:01.847Z,17.9
2022-09-06T03:43:01.822Z,17.87
2022-09-06T03:44:04.865Z,17.8
2022-09-06T03:45:01.824Z,17.79
2022-09-06T03:46:02.188Z,17.84
2022-09-06T03:47:01.853Z,17.86
2022-09-06T03:48:01.833Z,17.88
2022-09-06T03:49:02.083Z,17.94
2022-09-06T03:50:04.979Z,17.93
2022-09-06T03:51:01.841Z,17.9
2022-09-06T03:52:01.860Z,17.88
2022-09-06T03:53:01.842Z,17.94
2022-09-06T03:54:01.842Z,17.82
2022-09-06T03:55:04.902Z,17.84
2022-09-06T03:56:01.851Z,17.91
2022-09-06T03:57:01.895Z,17.93
2022-09-06T03:58:01.851Z,17.94
2022-09-06T03:59:01.860Z,17.84
2022-09-06T04:00:01.859Z,17.68
2022-09-06T04:01:02.005Z,17.66
2022-09-06T04:02:02.055Z,17.73
2022-09-06T04:03:06.113Z,17.76
2022-09-06T04:04:01.863Z,17.71
2022-09-06T04:05:01.858Z,17.6
2022-09-06T04:06:04.666Z,17.69
2022-09-06T04:07:01.885Z,17.68
2022-09-06T04:08:01.876Z,17.69
2022-09-06T04:09:01.879Z,17.69
2022-09-06T04:10:01.873Z,17.72
2022-09-06T04:11:01.881Z,17.78
2022-09-06T04:12:01.893Z,17.79
2022-09-06T04:13:01.887Z,17.82
2022-09-06T04:14:01.878Z,17.82
2022-09-06T04:15:01.912Z,17.69
2022-09-06T04:16:01.884Z,17.6
2022-09-06T04:17:05.332Z,17.57
2022-09-06T04:18:03.944Z,17.56
2022-09-06T04:19:02.024Z,17.65
2022-09-06T04:20:01.901Z,17.6
2022-09-06T04:21:01.893Z,17.63
2022-09-06T04:22:01.913Z,17.63
2022-09-06T04:23:01.896Z,17.71
2022-09-06T04:24:01.889Z,17.66
2022-09-06T04:25:01.901Z,17.6
2022-09-06T04:26:01.919Z,17.72
2022-09-06T04:27:01.924Z,17.71
2022-09-06T04:28:01.899Z,17.75
2022-09-06T04:29:01.917Z,17.73
2022-09-06T04:30:01.904Z,17.75
2022-09-06T04:31:07.707Z,17.79
2022-09-06T04:32:02.227Z,17.78
2022-09-06T04:33:01.937Z,17.8
2022-09-06T04:34:01.915Z,17.86
2022-09-06T04:35:01.927Z,17.79
2022-09-06T04:36:01.931Z,17.68
2022-09-06T04:37:01.962Z,17.66
2022-09-06T04:38:01.990Z,17.57
2022-09-06T04:39:01.933Z,17.63
2022-09-06T04:40:01.997Z,17.65
2022-09-06T04:41:01.918Z,17.75
2022-09-06T04:42:01.943Z,17.69
2022-09-06T04:43:01.926Z,17.73
2022-09-06T04:44:01.951Z,17.6
2022-09-06T04:45:01.973Z,17.59
2022-09-06T04:46:02.203Z,17.6
2022-09-06T04:47:03.552Z,17.6
2022-09-06T04:48:01.940Z,17.72
2022-09-06T04:49:02.614Z,17.72
2022-09-06T04:50:01.944Z,17.65
2022-09-06T04:51:01.956Z,17.56
2022-09-06T04:52:01.969Z,17.68
2022-09-06T04:53:01.950Z,17.69
2022-09-06T04:54:01.964Z,17.82
2022-09-06T04:55:01.944Z,17.68
2022-09-06T04:56:01.953Z,17.84
2022-09-06T04:57:01.970Z,17.84
2022-09-06T04:58:01.955Z,17.88
2022-09-06T04:59:01.945Z,17.91
2022-09-06T05:00:04.729Z,17.93
2022-09-06T05:01:02.178Z,18.02
2022-09-06T05:02:02.331Z,18
2022-09-06T05:03:01.973Z,17.98
2022-09-06T05:04:01.968Z,18.02
2022-09-06T05:05:02.090Z,18.09
2022-09-06T05:06:01.966Z,18.16
2022-09-06T05:07:02.003Z,18.19
2022-09-06T05:08:02.000Z,18.21
2022-09-06T05:09:01.983Z,18.24
2022-09-06T05:10:01.972Z,18.24
2022-09-06T05:11:04.869Z,18.28
2022-09-06T05:12:01.999Z,18.26
2022-09-06T05:13:01.985Z,18.26
2022-09-06T05:14:01.986Z,18.28
2022-09-06T05:15:01.997Z,18.39
2022-09-06T05:16:02.157Z,18.33
2022-09-06T05:17:02.114Z,18.26
2022-09-06T05:18:01.991Z,18.27
2022-09-06T05:19:01.992Z,18.11
2022-09-06T05:20:02.000Z,18.18
2022-09-06T05:21:01.997Z,18.12
2022-09-06T05:22:04.847Z,18.18
2022-09-06T05:23:01.995Z,18.06
2022-09-06T05:24:03.360Z,18.08
2022-09-06T05:25:02.026Z,18.02
2022-09-06T05:26:02.023Z,18.06
2022-09-06T05:27:02.021Z,18.05
2022-09-06T05:28:02.058Z,18
2022-09-06T05:29:02.049Z,18.03
2022-09-06T05:30:02.034Z,18.16
2022-09-06T05:31:02.041Z,18.23
2022-09-06T05:32:02.238Z,18.3
2022-09-06T05:33:05.028Z,18.33
2022-09-06T05:34:02.069Z,18.37
2022-09-06T05:35:02.098Z,18.45
2022-09-06T05:36:02.021Z,18.46
2022-09-06T05:37:02.017Z,18.45
2022-09-06T05:38:02.050Z,18.49
2022-09-06T05:39:02.047Z,18.63
2022-09-06T05:40:02.381Z,18.6
2022-09-06T05:41:02.036Z,18.7
2022-09-06T05:42:02.029Z,18.7
2022-09-06T05:43:02.069Z,18.73
2022-09-06T05:44:05.080Z,18.78
2022-09-06T05:45:02.142Z,18.81
2022-09-06T05:46:02.470Z,18.82
2022-09-06T05:47:02.046Z,18.82
2022-09-06T05:48:02.057Z,18.89
2022-09-06T05:49:02.049Z,18.92
2022-09-06T05:50:02.059Z,18.96
2022-09-06T05:51:02.051Z,18.88
2022-09-06T05:52:02.073Z,19.04
2022-09-06T05:53:02.068Z,19.08
2022-09-06T05:54:02.067Z,19.08
2022-09-06T05:55:04.898Z,18.94
2022-09-06T05:56:02.048Z,19.16
2022-09-06T05:57:02.369Z,19.09
2022-09-06T05:58:02.107Z,19.2
2022-09-06T05:59:02.058Z,19.23
2022-09-06T06:00:04.986Z,19.2
2022-09-06T06:01:02.218Z,19.29
2022-09-06T06:02:07.283Z,19.29
2022-09-06T06:03:02.153Z,19.41
2022-09-06T06:04:02.088Z,19.38
2022-09-06T06:05:02.083Z,19.38
2022-09-06T06:06:04.960Z,19.44
2022-09-06T06:07:02.082Z,19.56
2022-09-06T06:08:02.125Z,19.63
2022-09-06T06:09:02.113Z,19.55
2022-09-06T06:10:02.109Z,19.74
2022-09-06T06:11:05.259Z,19.75
2022-09-06T06:12:02.091Z,19.79
2022-09-06T06:13:02.100Z,19.89
2022-09-06T06:14:02.102Z,19.96
2022-09-06T06:15:02.091Z,19.9
2022-09-06T06:16:02.141Z,20.02
2022-09-06T06:17:05.226Z,20.1
2022-09-06T06:18:02.114Z,20.15
2022-09-06T06:19:02.114Z,20.33
2022-09-06T06:20:02.101Z,20.5
2022-09-06T06:21:02.102Z,20.52
2022-09-06T06:22:04.869Z,20.68
2022-09-06T06:23:02.144Z,20.68
2022-09-06T06:24:02.117Z,20.92
2022-09-06T06:25:02.131Z,21.15
2022-09-06T06:26:01.958Z,21.13
2022-09-06T06:27:02.114Z,21.2
2022-09-06T06:28:01.823Z,21.32
2022-09-06T06:29:02.209Z,21.4
2022-09-06T06:30:02.118Z,21.62
2022-09-06T06:31:02.118Z,21.62
2022-09-06T06:32:02.382Z,21.75
2022-09-06T06:33:04.913Z,21.75
2022-09-06T06:34:02.128Z,21.74
2022-09-06T06:35:02.147Z,21.7
2022-09-06T06:36:02.127Z,21.77
2022-09-06T06:37:02.139Z,21.75
2022-09-06T06:38:02.150Z,21.72
2022-09-06T06:39:02.127Z,21.75
2022-09-06T06:40:02.327Z,21.72
2022-09-06T06:41:09.437Z,21.74
2022-09-06T06:42:02.141Z,21.72
2022-09-06T06:43:02.139Z,21.62
2022-09-06T06:44:05.344Z,21.81
2022-09-06T06:45:02.146Z,21.69
2022-09-06T06:46:02.396Z,21.7
2022-09-06T06:47:02.156Z,21.8
2022-09-06T06:48:02.150Z,21.72
2022-09-06T06:49:02.153Z,21.81
2022-09-06T06:50:02.151Z,21.78
2022-09-06T06:51:02.156Z,21.74
2022-09-06T06:52:02.159Z,21.84
2022-09-06T06:53:02.180Z,22
2022-09-06T06:54:02.162Z,22.22
2022-09-06T06:55:02.161Z,22.33
2022-09-06T06:56:02.160Z,22.43
2022-09-06T06:57:02.164Z,22.74
2022-09-06T06:58:04.958Z,22.88
2022-09-06T06:59:02.187Z,23.07
2022-09-06T07:00:02.177Z,23.21
2022-09-06T07:01:02.559Z,23.2
2022-09-06T07:02:02.714Z,23.37
2022-09-06T07:03:02.188Z,23.59
2022-09-06T07:04:02.211Z,23.85
2022-09-06T07:05:02.796Z,23.7
2022-09-06T07:06:18.219Z,23.79
2022-09-06T07:07:33.457Z,23.85
2022-09-06T07:08:35.172Z,23.79
2022-09-06T07:10:34.904Z,23.69
2022-09-06T07:10:44.482Z,23.64
2022-09-06T07:11:44.430Z,23.67
2022-09-06T07:12:44.436Z,23.71
2022-09-06T07:13:44.442Z,23.84
2022-09-06T07:14:44.434Z,23.82
2022-09-06T07:15:44.449Z,23.56
2022-09-06T07:16:44.683Z,23.64
2022-09-06T07:17:44.447Z,23.63
2022-09-06T07:18:44.562Z,23.63
2022-09-06T07:20:14.863Z,23.48
2022-09-06T07:21:44.288Z,23.39
2022-09-06T07:21:53.761Z,23.42
2022-09-06T07:22:53.766Z,23.51
2022-09-06T07:24:10.621Z,23.48
2022-09-06T07:24:53.715Z,23.56
2022-09-06T07:25:53.676Z,23.44
2022-09-06T07:27:53.688Z,23.54
2022-09-06T07:28:13.365Z,23.52
2022-09-06T07:29:05.264Z,23.62
2022-09-06T07:30:05.416Z,23.52
2022-09-06T07:31:05.890Z,23.51
2022-09-06T07:32:15.042Z,23.48
2022-09-06T07:33:14.648Z,23.39
2022-09-06T07:34:14.812Z,23.39
2022-09-06T07:35:14.795Z,23.47
2022-09-06T07:36:14.786Z,23.63
2022-09-06T07:37:14.791Z,23.54
2022-09-06T07:38:14.787Z,23.69
2022-09-06T07:39:18.197Z,23.63
2022-09-06T07:40:15.138Z,23.54
2022-09-06T07:41:14.782Z,23.54
2022-09-06T07:42:14.806Z,23.67
2022-09-06T07:43:14.791Z,23.69
2022-09-06T07:44:14.814Z,23.77
2022-09-06T07:45:14.799Z,23.77
2022-09-06T07:46:14.831Z,23.84
2022-09-06T07:48:00.426Z,23.73
2022-09-06T07:48:14.810Z,23.73
2022-09-06T07:49:14.830Z,23.92
2022-09-06T07:51:14.812Z,23.88
2022-09-06T07:53:23.272Z,23.66
2022-09-06T07:53:39.984Z,23.59
2022-09-06T07:54:39.076Z,23.64
2022-09-06T07:55:39.067Z,23.66
2022-09-06T07:56:39.064Z,23.58
2022-09-06T07:57:39.064Z,23.54
2022-09-06T07:58:39.065Z,23.71
2022-09-06T07:59:43.446Z,23.55
2022-09-06T08:00:39.291Z,23.55
2022-09-06T08:01:39.239Z,23.67
2022-09-06T08:02:39.172Z,23.7
2022-09-06T08:03:39.100Z,23.86
2022-09-06T08:04:39.114Z,23.81
2022-09-06T08:06:12.885Z,24.04
2022-09-06T08:07:40.571Z,24.18
2022-09-06T08:09:04.963Z,24.14
2022-09-06T08:10:04.633Z,24.28
2022-09-06T08:11:08.113Z,24.34
2022-09-06T08:12:04.614Z,24.29
2022-09-06T08:13:04.620Z,24.26
2022-09-06T08:14:04.656Z,24.18
2022-09-06T08:15:04.654Z,24.31
2022-09-06T08:16:04.897Z,24.26
2022-09-06T08:17:04.638Z,24.32
2022-09-06T08:18:04.634Z,24.34
2022-09-06T08:19:04.619Z,24.44
2022-09-06T08:20:04.705Z,24.36
2022-09-06T08:21:05.139Z,24.29
2022-09-06T08:22:07.668Z,24.46
2022-09-06T08:23:04.632Z,24.75
2022-09-06T08:24:04.663Z,24.79
2022-09-06T08:25:04.672Z,24.56
2022-09-06T08:26:04.659Z,24.63
2022-09-06T08:27:04.849Z,24.53
2022-09-06T08:28:04.645Z,24.62
2022-09-06T08:29:04.661Z,24.47
2022-09-06T08:30:04.709Z,24.51
2022-09-06T08:31:04.721Z,24.58
2022-09-06T08:32:05.020Z,24.58
2022-09-06T08:33:07.751Z,24.61
2022-09-06T08:34:04.683Z,24.5
2022-09-06T08:35:04.694Z,24.61
2022-09-06T08:36:04.852Z,24.59
2022-09-06T08:37:04.693Z,24.68
2022-09-06T08:38:04.703Z,24.77
2022-09-06T08:39:04.678Z,24.93
2022-09-06T08:40:05.116Z,24.79
2022-09-06T08:41:04.692Z,24.47
2022-09-06T08:42:04.678Z,24.62
2022-09-06T08:43:04.667Z,24.66
2022-09-06T08:45:04.714Z,24.43
2022-09-06T08:45:14.036Z,24.5
2022-09-06T08:46:14.289Z,24.34
2022-09-06T08:47:14.165Z,24.31
2022-09-06T08:48:14.152Z,24.34
2022-09-06T08:49:14.148Z,24.41
2022-09-06T08:50:14.162Z,24.44
2022-09-06T08:51:14.144Z,24.47
2022-09-06T08:52:14.147Z,24.48
2022-09-06T08:53:22.646Z,24.56
2022-09-06T08:54:14.166Z,24.58
2022-09-06T08:55:14.181Z,24.62
2022-09-06T08:56:14.171Z,24.65
2022-09-06T08:57:14.233Z,24.74
2022-09-06T08:58:14.172Z,24.63
2022-09-06T08:59:14.162Z,24.81
2022-09-06T09:00:15.672Z,24.94
2022-09-06T09:01:14.436Z,25.11
2022-09-06T09:02:14.615Z,25.39
2022-09-06T09:03:20.456Z,25.63
2022-09-06T09:04:14.284Z,25.74
2022-09-06T09:05:14.232Z,25.89
2022-09-06T09:06:17.226Z,25.95
2022-09-06T09:07:14.179Z,25.91
2022-09-06T09:08:14.559Z,25.8
2022-09-06T09:09:14.193Z,25.67
2022-09-06T09:10:14.232Z,25.76
2022-09-06T09:11:14.223Z,25.81
2022-09-06T09:12:14.191Z,25.92
2022-09-06T09:13:14.189Z,25.96
2022-09-06T09:14:14.190Z,25.86
2022-09-06T09:15:14.220Z,26.11
2022-09-06T09:16:14.354Z,26.29
2022-09-06T09:17:17.269Z,26.56
2022-09-06T09:18:14.226Z,26.71
2022-09-06T09:19:14.211Z,26.96
2022-09-06T09:20:14.219Z,27.13
2022-09-06T09:21:14.209Z,27.01
2022-09-06T09:22:16.986Z,27.13
2022-09-06T09:23:14.209Z,27.38
2022-09-06T09:24:14.218Z,27.48
2022-09-06T09:25:14.240Z,27.72
2022-09-06T09:26:14.220Z,28.01
2022-09-06T09:27:14.231Z,27.9
2022-09-06T09:28:17.029Z,27.82
2022-09-06T09:29:14.236Z,27.91
2022-09-06T09:30:52.266Z,27.81
2022-09-06T09:31:14.397Z,27.81
2022-09-06T09:32:14.219Z,27.95
2022-09-06T09:33:17.269Z,28.22
2022-09-06T09:34:14.240Z,28.28
2022-09-06T09:35:14.256Z,28.52
2022-09-06T09:36:14.230Z,28.78
2022-09-06T09:37:47.672Z,28.75
2022-09-06T09:38:16.779Z,28.62
2022-09-06T09:39:17.295Z,28.43
2022-09-06T09:40:14.312Z,28.64
2022-09-06T09:41:14.271Z,28.56
2022-09-06T09:42:14.261Z,28.74
2022-09-06T09:43:14.256Z,28.77
2022-09-06T09:44:17.516Z,28.77
2022-09-06T09:45:14.277Z,28.87
2022-09-06T09:46:14.443Z,28.74
2022-09-06T09:47:14.268Z,28.86
2022-09-06T09:48:14.258Z,29.07
2022-09-06T09:49:14.272Z,29.13
2022-09-06T09:50:14.356Z,29.2
2022-09-06T09:51:26.891Z,29.15
2022-09-06T09:52:14.252Z,29.24
2022-09-06T09:53:14.287Z,29.44
2022-09-06T09:54:14.278Z,29.4
2022-09-06T09:55:17.340Z,29.21
2022-09-06T09:56:14.280Z,29.5
2022-09-06T09:57:16.627Z,29.44
2022-09-06T09:58:14.275Z,29.67
2022-09-06T09:59:14.278Z,29.76
2022-09-06T10:00:14.341Z,29.69
2022-09-06T10:01:14.530Z,29.86
2022-09-06T10:02:14.286Z,30.01
2022-09-06T10:03:14.421Z,30.1
2022-09-06T10:04:44.641Z,30.05
2022-09-06T10:05:14.327Z,30.13
2022-09-06T10:07:10.190Z,30.39
2022-09-06T10:07:19.995Z,30.49
2022-09-06T10:08:19.964Z,29.96
2022-09-06T10:09:23.782Z,28.94
2022-09-06T10:10:19.979Z,29.57
2022-09-06T10:11:19.968Z,29.95
2022-09-06T10:12:23.040Z,29.39
2022-09-06T10:13:19.971Z,29.59
2022-09-06T10:14:19.967Z,29.28
2022-09-06T10:15:19.989Z,29.16
2022-09-06T10:16:20.132Z,29.5
2022-09-06T10:17:20.354Z,29.99
2022-09-06T10:18:20.982Z,30.2
2022-09-06T10:19:19.967Z,30.31
2022-09-06T10:20:19.989Z,30.52
2022-09-06T10:21:19.989Z,30.58
2022-09-06T10:22:19.992Z,30.63
2022-09-06T10:24:37.706Z,30.69
2022-09-06T10:25:37.683Z,30.4
2022-09-06T10:26:37.679Z,30.67
2022-09-06T10:27:50.350Z,30.88
2022-09-06T10:28:37.671Z,30.88
2022-09-06T10:29:37.672Z,30.92
2022-09-06T10:30:37.716Z,31.1
2022-09-06T10:31:37.995Z,31.11
2022-09-06T10:32:37.676Z,30.95
2022-09-06T10:33:37.685Z,30.92
2022-09-06T10:34:37.697Z,30.91
2022-09-06T10:35:37.694Z,30.99
2022-09-06T10:36:37.692Z,31.2
2022-09-06T10:37:37.715Z,31.33
2022-09-06T10:38:37.685Z,31.35
2022-09-06T10:39:37.967Z,31.51
2022-09-06T10:40:41.368Z,31.25
2022-09-06T10:41:37.715Z,31
2022-09-06T10:42:37.708Z,31.15
2022-09-06T10:43:37.691Z,31.25
2022-09-06T10:44:37.715Z,31.36
2022-09-06T10:45:37.713Z,31.59
2022-09-06T10:46:37.953Z,31.55
2022-09-06T10:47:37.728Z,31.85
2022-09-06T10:48:37.703Z,31.73
2022-09-06T10:49:37.714Z,32.11
2022-09-06T10:50:37.729Z,32.02
2022-09-06T10:51:40.466Z,32.02
2022-09-06T10:52:37.746Z,31.85
2022-09-06T10:53:37.737Z,31.51
2022-09-06T10:54:37.716Z,31.2
2022-09-06T10:55:37.740Z,31.52
2022-09-06T10:56:37.735Z,31.52
2022-09-06T10:58:23.699Z,31.17
2022-09-06T10:59:37.704Z,31.08
2022-09-06T10:59:51.486Z,30.96
2022-09-06T11:00:47.920Z,30.76
2022-09-06T11:01:48.375Z,30.39
2022-09-06T11:02:48.599Z,30.96
2022-09-06T11:04:04.575Z,30.7
2022-09-06T11:05:42.942Z,31.1
2022-09-06T11:05:57.709Z,31.13
2022-09-06T11:06:57.586Z,31.02
2022-09-06T11:08:58.207Z,31.33
2022-09-06T11:09:07.893Z,31.23
2022-09-06T11:10:07.865Z,31.14
2022-09-06T11:11:09.385Z,31.11
2022-09-06T11:12:07.853Z,31.1
2022-09-06T11:13:07.716Z,31.15
2022-09-06T11:14:10.138Z,31.32
2022-09-06T11:15:07.862Z,31.22
2022-09-06T11:16:08.174Z,30.99
2022-09-06T11:17:07.865Z,30.76
2022-09-06T11:18:07.862Z,30.83
2022-09-06T11:19:07.698Z,30.86
2022-09-06T11:20:07.864Z,30.86
2022-09-06T11:21:07.942Z,30.78
2022-09-06T11:22:10.970Z,30.89
2022-09-06T11:23:07.861Z,30.81
2022-09-06T11:24:07.870Z,30.99
2022-09-06T11:25:07.869Z,30.8
2022-09-06T11:26:07.889Z,30.93
2022-09-06T11:27:07.887Z,31.07
2022-09-06T11:28:07.881Z,30.99
2022-09-06T11:29:07.920Z,30.95
2022-09-06T11:30:07.891Z,31.05
2022-09-06T11:31:08.386Z,31.1
2022-09-06T11:32:20.725Z,31.29
2022-09-06T11:33:19.765Z,31.42
2022-09-06T11:34:19.720Z,31.51
2022-09-06T11:35:19.914Z,31.42
2022-09-06T11:36:19.739Z,31.33
2022-09-06T11:37:19.896Z,30.89
2022-09-06T11:38:19.937Z,30.74
2022-09-06T11:40:37.366Z,31.37
2022-09-06T11:41:33.760Z,31.28
2022-09-06T11:42:33.738Z,31.23
2022-09-06T11:43:33.701Z,31.23
2022-09-06T11:44:33.749Z,31.36
2022-09-06T11:45:33.765Z,31.32
2022-09-06T11:46:33.949Z,31.22
2022-09-06T11:47:33.578Z,31.47
2022-09-06T11:48:33.735Z,31.36
2022-09-06T11:49:33.758Z,31.29
2022-09-06T11:50:33.759Z,31.13
2022-09-06T11:51:36.633Z,31.15
2022-09-06T11:52:33.777Z,31.44
2022-09-06T11:53:33.882Z,31.25
2022-09-06T11:54:33.787Z,31.02
2022-09-06T11:55:33.595Z,31.08
2022-09-06T11:56:33.775Z,31.1
2022-09-06T11:57:33.764Z,31.07
2022-09-06T11:58:33.783Z,31.26
2022-09-06T11:59:33.769Z,31.18
2022-09-06T12:00:33.781Z,31.29
2022-09-06T12:01:33.797Z,31.17
2022-09-06T12:02:37.328Z,30.8
2022-09-06T12:04:04.156Z,30.88
2022-09-06T12:04:33.620Z,30.98
2022-09-06T12:05:33.788Z,30.99
2022-09-06T12:06:33.655Z,31
2022-09-06T12:07:33.779Z,30.93
2022-09-06T12:08:33.863Z,30.96
2022-09-06T12:09:33.821Z,30.89
2022-09-06T12:10:33.785Z,30.98
2022-09-06T12:11:35.067Z,30.78
2022-09-06T12:12:33.796Z,30.78
2022-09-06T12:13:36.586Z,30.77
2022-09-06T12:14:33.824Z,31.04
2022-09-06T12:15:33.995Z,31.36
2022-09-06T12:16:33.925Z,31.6
2022-09-06T12:17:33.807Z,31.42
2022-09-06T12:18:33.945Z,31.28
2022-09-06T12:19:33.850Z,31.13
2022-09-06T12:20:33.805Z,31.3
2022-09-06T12:21:33.827Z,31.35
2022-09-06T12:22:33.820Z,31.23
2022-09-06T12:23:33.825Z,31.3
2022-09-06T12:24:36.973Z,31.23
2022-09-06T12:25:33.826Z,30.86
2022-09-06T12:26:33.837Z,30.62
2022-09-06T12:27:33.816Z,30.24
2022-09-06T12:28:33.968Z,30.61
2022-09-06T12:29:33.837Z,30.76
2022-09-06T12:30:33.831Z,30.8
2022-09-06T12:31:34.109Z,30.8
2022-09-06T12:32:39.416Z,30.91
2022-09-06T12:33:33.840Z,30.98
2022-09-06T12:34:33.838Z,30.95
2022-09-06T12:36:08.128Z,30.74
2022-09-06T12:36:33.873Z,30.76
2022-09-06T12:37:33.849Z,30.73
2022-09-06T12:38:34.022Z,30.81
2022-09-06T12:39:34.122Z,30.58
2022-09-06T12:40:36.739Z,30.35
2022-09-06T12:41:33.869Z,30.36
2022-09-06T12:42:33.854Z,30.31
2022-09-06T12:43:33.865Z,30.16
2022-09-06T12:44:33.708Z,30.31
2022-09-06T12:45:33.868Z,30.35
2022-09-06T12:46:34.144Z,30.59
2022-09-06T12:47:33.868Z,30.62
2022-09-06T12:48:34.179Z,30.7
2022-09-06T12:49:33.861Z,30.89
2022-09-06T12:50:33.898Z,31.04
2022-09-06T12:51:35.495Z,30.91
2022-09-06T12:52:33.876Z,31.05
2022-09-06T12:53:33.874Z,31.1
2022-09-06T12:54:33.883Z,30.95
2022-09-06T12:55:33.872Z,30.88
2022-09-06T12:56:33.892Z,30.95
2022-09-06T12:57:33.885Z,30.91
2022-09-06T12:58:34.220Z,30.93
2022-09-06T12:59:33.881Z,30.99
2022-09-06T13:00:33.891Z,31.07
2022-09-06T13:01:34.285Z,31.14
2022-09-06T13:02:34.444Z,31.17
2022-09-06T13:03:33.905Z,31.32